Time;durP1;ratioP1;P1;durP2;ratioP2;P2;SDS_P1;SDS_P2;PMS_P1;PMS_P2;Temp;Humidity;BMP_temperature;BMP_pressure;BME280_temperature;BME280_humidity;BME280_pressure;Samples;Min_cycle;Max_cycle;Signal;HPM_P1;HPM_P2
2021/04/20 00:00:01;;;;;;;7.07;4.43;;;;;;;;;;4327265;33;20298;-63
2021/04/20 00:02:27;;;;;;;5.80;4.33;;;;;;;;;;4328111;33;20429;-64
2021/04/20 00:04:52;;;;;;;6.60;3.70;;;;;;;;;;4327243;33;20262;-63
2021/04/20 00:07:18;;;;;;;14.53;12.83;;;;;;;;;;4327871;33;20239;-63
2021/04/20 00:09:44;;;;;;;20.27;18.20;;;;;;;;;;4327227;33;20227;-63
2021/04/20 00:12:10;;;;;;;19.73;17.67;;;;;;;;;;4334186;33;20243;-64
2021/04/20 00:14:36;;;;;;;15.47;13.73;;;;;;;;;;4316749;33;20235;-64
2021/04/20 00:17:04;;;;;;;16.40;12.00;;;;;;;;;;4329082;33;20222;-64
2021/04/20 00:19:30;;;;;;;10.53;8.00;;;;;;;;;;4330008;33;20269;-64
2021/04/20 00:21:56;;;;;;;9.50;7.17;;;;;;;;;;4330759;33;20274;-64
2021/04/20 00:24:21;;;;;;;10.07;5.73;;;;;;;;;;4330174;33;20248;-63
2021/04/20 00:26:46;;;;;;;7.70;5.10;;;;;;;;;;4330759;33;20833;-64
2021/04/20 00:29:12;;;;;;;11.00;5.23;;;;;;;;;;4330083;33;20215;-64
2021/04/20 00:31:38;;;;;;;8.70;5.50;;;;;;;;;;4315071;33;20262;-53
2021/04/20 00:34:03;;;;;;;7.47;5.13;;;;;;;;;;4323876;33;20358;-52
2021/04/20 00:36:29;;;;;;;5.10;3.73;;;;;;;;;;4330763;33;20732;-53
2021/04/20 00:38:55;;;;;;;5.43;4.17;;;;;;;;;;4329968;33;20218;-63
2021/04/20 00:41:23;;;;;;;6.03;3.40;;;;;;;;;;4330256;33;20286;-53
2021/04/20 00:43:48;;;;;;;8.33;4.50;;;;;;;;;;4330466;33;20211;-53
2021/04/20 00:46:17;;;;;;;9.37;7.37;;;;;;;;;;4330958;33;20405;-54
2021/04/20 00:48:43;;;;;;;11.40;6.37;;;;;;;;;;4330149;33;20435;-53
2021/04/20 00:51:10;;;;;;;6.43;4.90;;;;;;;;;;4324538;33;20246;-53
2021/04/20 00:53:36;;;;;;;5.97;3.67;;;;;;;;;;4330446;33;20281;-53
2021/04/20 00:56:02;;;;;;;5.77;3.60;;;;;;;;;;4331204;33;20345;-53
2021/04/20 00:58:28;;;;;;;6.33;4.13;;;;;;;;;;4330166;33;20298;-53
2021/04/20 01:00:55;;;;;;;5.53;3.63;;;;;;;;;;4330862;33;20305;-54
2021/04/20 01:03:21;;;;;;;5.53;3.20;;;;;;;;;;4330250;33;20218;-53
2021/04/20 01:05:47;;;;;;;6.63;3.50;;;;;;;;;;4330554;33;20363;-53
2021/04/20 01:08:17;;;;;;;5.10;3.80;;;;;;;;;;4330488;33;20211;-53
2021/04/20 01:10:45;;;;;;;4.33;3.47;;;;;;;;;;4330636;33;20223;-53
2021/04/20 01:13:13;;;;;;;3.87;2.87;;;;;;;;;;4340415;33;20595;-52
2021/04/20 01:15:43;;;;;;;4.43;3.23;;;;;;;;;;4321227;33;20223;-53
2021/04/20 01:18:12;;;;;;;4.80;3.23;;;;;;;;;;4321093;33;20261;-52
2021/04/20 01:20:53;;;;;;;3.40;3.10;;;;;;;;;;4327434;33;20669;-53
2021/04/20 01:23:42;;;;;;;3.70;3.27;;;;;;;;;;4329869;33;20230;-53
2021/04/20 01:26:10;;;;;;;3.63;3.20;;;;;;;;;;4330434;33;20221;-53
2021/04/20 01:28:36;;;;;;;2.70;2.50;;;;;;;;;;4330158;33;20227;-53
2021/04/20 01:31:01;;;;;;;3.07;2.77;;;;;;;;;;4330544;33;20278;-53
2021/04/20 01:33:27;;;;;;;4.07;2.83;;;;;;;;;;4329870;33;20334;-52
2021/04/20 01:35:53;;;;;;;5.97;3.70;;;;;;;;;;4330636;33;20304;-54
2021/04/20 01:38:19;;;;;;;6.10;5.50;;;;;;;;;;4329867;33;20219;-52
2021/04/20 01:40:44;;;;;;;10.70;6.03;;;;;;;;;;4330018;33;20681;-53
2021/04/20 01:43:13;;;;;;;8.63;5.90;;;;;;;;;;4329986;33;20249;-53
2021/04/20 01:45:42;;;;;;;12.90;6.87;;;;;;;;;;4327028;33;20245;-53
2021/04/20 01:48:10;;;;;;;10.73;6.87;;;;;;;;;;4329814;33;20664;-53
2021/04/20 01:50:39;;;;;;;9.43;6.77;;;;;;;;;;4330026;33;20259;-53
2021/04/20 01:53:05;;;;;;;9.27;7.20;;;;;;;;;;4329722;33;20572;-53
2021/04/20 01:55:30;;;;;;;10.23;7.63;;;;;;;;;;4329878;33;20274;-54
2021/04/20 01:57:56;;;;;;;12.00;7.27;;;;;;;;;;4329315;33;20774;-53
2021/04/20 02:00:22;;;;;;;10.30;8.27;;;;;;;;;;4329914;33;20286;-54
2021/04/20 02:02:48;;;;;;;13.43;9.20;;;;;;;;;;4329657;33;20306;-53
2021/04/20 02:05:15;;;;;;;14.27;8.63;;;;;;;;;;4329551;33;20793;-54
2021/04/20 02:07:42;;;;;;;9.67;7.27;;;;;;;;;;4329520;33;20684;-53
2021/04/20 02:10:10;;;;;;;9.73;6.60;;;;;;;;;;4324131;33;20469;-52
2021/04/20 02:12:40;;;;;;;11.07;6.63;;;;;;;;;;4317093;33;20329;-52
2021/04/20 02:15:10;;;;;;;9.47;7.37;;;;;;;;;;4311740;33;20249;-52
2021/04/20 02:17:36;;;;;;;11.03;7.60;;;;;;;;;;4316128;33;20646;-53
2021/04/20 02:20:06;;;;;;;10.90;8.27;;;;;;;;;;4328972;33;20329;-53
2021/04/20 02:22:38;;;;;;;16.40;10.03;;;;;;;;;;4328680;33;20269;-53
2021/04/20 02:25:08;;;;;;;15.17;9.93;;;;;;;;;;4328942;33;20261;-53
2021/04/20 02:27:35;;;;;;;15.93;10.53;;;;;;;;;;4330059;33;20241;-53
2021/04/20 02:30:02;;;;;;;23.40;14.47;;;;;;;;;;4329061;33;20562;-54
2021/04/20 02:32:28;;;;;;;30.83;18.30;;;;;;;;;;4329859;33;20542;-53
2021/04/20 02:34:54;;;;;;;59.30;30.53;;;;;;;;;;4328785;33;20249;-53
2021/04/20 02:37:19;;;;;;;29.33;19.47;;;;;;;;;;4329588;33;20388;-54
2021/04/20 02:39:47;;;;;;;28.60;17.00;;;;;;;;;;4328220;33;20277;-53
2021/04/20 02:42:13;;;;;;;18.20;13.00;;;;;;;;;;4315087;33;20227;-53
2021/04/20 02:44:39;;;;;;;24.23;13.93;;;;;;;;;;4326222;33;20242;-53
2021/04/20 02:47:04;;;;;;;19.60;14.33;;;;;;;;;;4328126;33;20242;-53
2021/04/20 02:49:31;;;;;;;28.67;16.53;;;;;;;;;;4328848;33;20253;-53
2021/04/20 02:51:56;;;;;;;20.30;13.17;;;;;;;;;;4329024;33;20337;-53
2021/04/20 02:54:22;;;;;;;17.33;11.47;;;;;;;;;;4328926;33;20285;-53
2021/04/20 02:56:48;;;;;;;15.23;10.93;;;;;;;;;;4329080;33;20312;-53
2021/04/20 02:59:15;;;;;;;15.40;10.50;;;;;;;;;;4328902;33;20215;-53
2021/04/20 03:01:42;;;;;;;15.37;10.03;;;;;;;;;;4329366;33;20222;-52
2021/04/20 03:04:13;;;;;;;11.57;9.80;;;;;;;;;;4310893;33;20305;-53
2021/04/20 03:06:41;;;;;;;13.57;10.63;;;;;;;;;;4329171;33;20223;-53
2021/04/20 03:09:06;;;;;;;14.70;10.53;;;;;;;;;;4328555;33;20215;-53
2021/04/20 03:11:48;;;;;;;24.83;16.80;;;;;;;;;;4328802;33;20747;-53
2021/04/20 03:14:13;;;;;;;27.57;16.97;;;;;;;;;;4320603;33;20218;-53
2021/04/20 03:16:40;;;;;;;21.37;15.93;;;;;;;;;;4329265;33;20219;-53
2021/04/20 03:19:06;;;;;;;27.63;17.40;;;;;;;;;;4328253;33;20656;-53
2021/04/20 03:21:33;;;;;;;14.30;10.87;;;;;;;;;;4325313;33;20303;-53
2021/04/20 03:24:01;;;;;;;15.57;10.57;;;;;;;;;;4321609;33;20284;-53
2021/04/20 03:26:26;;;;;;;13.30;10.53;;;;;;;;;;4305614;33;20266;-53
2021/04/20 03:28:56;;;;;;;15.77;11.33;;;;;;;;;;4321102;33;20235;-54
2021/04/20 03:31:23;;;;;;;29.30;15.77;;;;;;;;;;4328986;33;20250;-53
2021/04/20 03:33:53;;;;;;;29.60;18.50;;;;;;;;;;4328218;33;20644;-55
2021/04/20 03:36:32;;;;;;;28.53;16.60;;;;;;;;;;4318204;33;20261;-53
2021/04/20 03:39:07;;;;;;;25.03;17.13;;;;;;;;;;4321633;33;20278;-53
2021/04/20 03:41:42;;;;;;;30.90;18.20;;;;;;;;;;4328308;33;20206;-53
2021/04/20 03:44:12;;;;;;;29.53;16.03;;;;;;;;;;4328367;33;20650;-63
2021/04/20 03:46:43;;;;;;;28.73;16.17;;;;;;;;;;4328803;33;20211;-63
2021/04/20 03:49:29;;;;;;;36.53;16.37;;;;;;;;;;4328285;33;20622;-53
2021/04/20 03:51:57;;;;;;;24.10;16.57;;;;;;;;;;4328739;33;20295;-52
2021/04/20 03:54:25;;;;;;;20.73;14.57;;;;;;;;;;4327979;33;20234;-52
2021/04/20 03:56:55;;;;;;;15.87;11.23;;;;;;;;;;4328488;33;20223;-53
2021/04/20 03:59:22;;;;;;;16.03;10.17;;;;;;;;;;4328181;33;20320;-52
2021/04/20 04:01:50;;;;;;;20.27;15.27;;;;;;;;;;4328527;33;20324;-52
2021/04/20 04:04:18;;;;;;;46.30;29.40;;;;;;;;;;4327801;33;20282;-53
2021/04/20 04:06:45;;;;;;;14.13;9.73;;;;;;;;;;4328460;33;20600;-53
2021/04/20 04:09:13;;;;;;;14.70;10.13;;;;;;;;;;4327703;33;20203;-53
2021/04/20 04:11:54;;;;;;;17.27;10.23;;;;;;;;;;4328232;33;20227;-54
2021/04/20 04:14:22;;;;;;;25.33;14.20;;;;;;;;;;4328180;33;20359;-53
2021/04/20 04:16:48;;;;;;;58.43;30.83;;;;;;;;;;4328738;33;20270;-62
2021/04/20 04:19:18;;;;;;;34.33;20.27;;;;;;;;;;4326368;33;20356;-61
2021/04/20 04:21:47;;;;;;;36.80;22.33;;;;;;;;;;4326002;33;20254;-63
2021/04/20 04:24:17;;;;;;;31.20;20.40;;;;;;;;;;4326578;33;20613;-62
2021/04/20 04:26:48;;;;;;;27.27;17.83;;;;;;;;;;4327034;33;20249;-62
2021/04/20 04:29:14;;;;;;;28.23;18.80;;;;;;;;;;4326784;33;20265;-64
2021/04/20 04:31:42;;;;;;;33.77;23.43;;;;;;;;;;4326404;33;20676;-62
2021/04/20 04:34:10;;;;;;;35.03;21.03;;;;;;;;;;4324181;33;20235;-62
2021/04/20 04:36:36;;;;;;;38.00;24.23;;;;;;;;;;4326118;33;20660;-63
2021/04/20 04:39:03;;;;;;;31.93;19.80;;;;;;;;;;4327377;33;20261;-63
2021/04/20 04:41:28;;;;;;;20.80;16.00;;;;;;;;;;4327869;33;20215;-63
2021/04/20 04:43:54;;;;;;;24.57;17.73;;;;;;;;;;4327605;33;20664;-52
2021/04/20 04:46:21;;;;;;;35.87;21.23;;;;;;;;;;4328058;33;20308;-53
2021/04/20 04:48:47;;;;;;;28.10;18.60;;;;;;;;;;4327196;33;20695;-52
2021/04/20 04:51:14;;;;;;;25.17;15.67;;;;;;;;;;4327655;33;20223;-53
2021/04/20 04:53:41;;;;;;;18.13;12.20;;;;;;;;;;4326838;33;20265;-53
2021/04/20 04:56:08;;;;;;;14.13;8.53;;;;;;;;;;4327674;33;20298;-53
2021/04/20 04:58:36;;;;;;;15.87;9.07;;;;;;;;;;4327409;33;20266;-53
2021/04/20 05:01:03;;;;;;;15.93;12.17;;;;;;;;;;4328070;33;20270;-53
2021/04/20 05:03:29;;;;;;;18.83;12.17;;;;;;;;;;4328846;33;20260;-53
2021/04/20 05:06:00;;;;;;;22.17;12.63;;;;;;;;;;4330163;33;20215;-62
2021/04/20 05:08:26;;;;;;;18.97;13.30;;;;;;;;;;4329936;33;20215;-62
2021/04/20 05:10:52;;;;;;;19.00;12.07;;;;;;;;;;4322864;33;20310;-61
2021/04/20 05:13:18;;;;;;;21.93;13.73;;;;;;;;;;4330268;33;20724;-63
2021/04/20 05:15:43;;;;;;;15.73;11.10;;;;;;;;;;4310667;33;20312;-62
2021/04/20 05:18:13;;;;;;;18.77;12.17;;;;;;;;;;4328271;33;20215;-63
2021/04/20 05:20:44;;;;;;;15.17;11.13;;;;;;;;;;4327163;33;20290;-62
2021/04/20 05:23:14;;;;;;;10.53;8.87;;;;;;;;;;4329958;33;20226;-63
2021/04/20 05:25:40;;;;;;;17.20;11.57;;;;;;;;;;4327414;33;20235;-62
2021/04/20 05:28:06;;;;;;;13.13;8.57;;;;;;;;;;4328693;33;20256;-62
2021/04/20 05:30:32;;;;;;;13.60;10.20;;;;;;;;;;4330020;33;20329;-62
2021/04/20 05:32:59;;;;;;;17.00;9.53;;;;;;;;;;4329819;33;20290;-63
2021/04/20 05:35:25;;;;;;;12.60;9.57;;;;;;;;;;4329996;33;20580;-64
2021/04/20 05:37:50;;;;;;;10.70;9.20;;;;;;;;;;4329662;33;20253;-63
2021/04/20 05:40:26;;;;;;;13.07;9.83;;;;;;;;;;4328296;33;20333;-55
2021/04/20 05:42:53;;;;;;;14.17;10.10;;;;;;;;;;4327814;33;20679;-53
2021/04/20 05:45:19;;;;;;;16.90;11.33;;;;;;;;;;4306837;33;20234;-53
2021/04/20 05:47:47;;;;;;;14.60;10.63;;;;;;;;;;4328053;33;20251;-53
2021/04/20 05:50:28;;;;;;;19.13;13.50;;;;;;;;;;4326113;33;20219;-52
2021/04/20 05:52:54;;;;;;;17.07;11.93;;;;;;;;;;4325991;33;20562;-54
2021/04/20 05:55:20;;;;;;;13.27;10.93;;;;;;;;;;4329141;33;20246;-53
2021/04/20 05:57:47;;;;;;;20.87;12.70;;;;;;;;;;4329241;33;20235;-53
2021/04/20 06:00:14;;;;;;;16.77;11.03;;;;;;;;;;4319265;33;20224;-53
2021/04/20 06:02:41;;;;;;;22.67;13.67;;;;;;;;;;4316497;33;20698;-52
2021/04/20 06:05:12;;;;;;;19.63;13.23;;;;;;;;;;4329659;33;20353;-53
2021/04/20 06:07:44;;;;;;;16.87;12.13;;;;;;;;;;4329787;33;20332;-53
2021/04/20 06:10:10;;;;;;;16.43;11.90;;;;;;;;;;4329647;33;20259;-54
2021/04/20 06:12:37;;;;;;;17.33;11.63;;;;;;;;;;4328527;33;20703;-53
2021/04/20 06:15:05;;;;;;;10.40;8.67;;;;;;;;;;4329011;33;20710;-54
2021/04/20 06:17:33;;;;;;;15.70;11.93;;;;;;;;;;4330131;33;20604;-53
2021/04/20 06:20:00;;;;;;;18.77;12.27;;;;;;;;;;4327749;33;20212;-53
2021/04/20 06:22:26;;;;;;;20.43;12.83;;;;;;;;;;4329294;33;20239;-53
2021/04/20 06:24:52;;;;;;;19.17;13.50;;;;;;;;;;4326960;33;20281;-52
2021/04/20 06:27:18;;;;;;;33.57;22.33;;;;;;;;;;4329625;33;20340;-53
2021/04/20 06:29:43;;;;;;;40.60;26.83;;;;;;;;;;4329292;33;20677;-53
2021/04/20 06:32:11;;;;;;;37.17;25.57;;;;;;;;;;4329517;33;20349;-52
2021/04/20 06:34:37;;;;;;;32.77;21.60;;;;;;;;;;4328990;33;20252;-53
2021/04/20 06:37:06;;;;;;;28.67;20.57;;;;;;;;;;4329361;33;20293;-53
2021/04/20 06:39:32;;;;;;;28.80;22.77;;;;;;;;;;4328483;33;20352;-53
2021/04/20 06:41:59;;;;;;;30.43;21.70;;;;;;;;;;4316112;33;20348;-53
2021/04/20 06:44:36;;;;;;;21.40;14.23;;;;;;;;;;4328602;33;20345;-53
2021/04/20 06:47:22;;;;;;;16.40;11.60;;;;;;;;;;4328933;33;20246;-53
2021/04/20 06:49:59;;;;;;;12.80;9.37;;;;;;;;;;4328182;33;20253;-53
2021/04/20 06:52:30;;;;;;;13.00;10.07;;;;;;;;;;4328111;33;20337;-53
2021/04/20 06:55:09;;;;;;;15.80;8.00;;;;;;;;;;4327564;33;20215;-54
2021/04/20 06:58:00;;;;;;;11.80;7.53;;;;;;;;;;4328770;33;20291;-53
2021/04/20 07:00:28;;;;;;;8.83;6.27;;;;;;;;;;4303639;33;20437;-53
2021/04/20 07:03:25;;;;;;;7.70;6.80;;;;;;;;;;4306043;33;20223;-53
2021/04/20 07:05:59;;;;;;;7.53;6.73;;;;;;;;;;4328022;33;20254;-53
2021/04/20 07:08:35;;;;;;;9.90;7.40;;;;;;;;;;4313107;33;20235;-53
2021/04/20 07:11:09;;;;;;;12.90;10.93;;;;;;;;;;4327741;33;20211;-54
2021/04/20 07:13:37;;;;;;;12.73;9.17;;;;;;;;;;4327726;33;20257;-54
2021/04/20 07:16:24;;;;;;;13.40;10.87;;;;;;;;;;4328049;33;20250;-52
2021/04/20 07:19:17;;;;;;;18.03;10.60;;;;;;;;;;4327239;33;20700;-53
2021/04/20 07:21:44;;;;;;;14.27;8.67;;;;;;;;;;4328403;33;20262;-53
2021/04/20 07:24:38;;;;;;;9.10;7.87;;;;;;;;;;4328309;33;20306;-62
2021/04/20 07:27:17;;;;;;;15.50;9.47;;;;;;;;;;4322089;33;20588;-64
2021/04/20 07:30:02;;;;;;;22.37;12.33;;;;;;;;;;4327957;33;20223;-62
2021/04/20 07:32:35;;;;;;;11.13;9.57;;;;;;;;;;4322136;33;20376;-62
2021/04/20 07:35:21;;;;;;;27.60;15.57;;;;;;;;;;4313816;33;20199;-62
2021/04/20 07:37:58;;;;;;;21.33;15.53;;;;;;;;;;4312616;33;20290;-63
2021/04/20 07:40:26;;;;;;;16.27;11.20;;;;;;;;;;4321257;33;20710;-63
2021/04/20 07:43:22;;;;;;;17.40;11.70;;;;;;;;;;4324441;33;20259;-63
2021/04/20 07:45:59;;;;;;;17.63;12.83;;;;;;;;;;4314308;33;20297;-62
2021/04/20 07:48:42;;;;;;;18.13;12.50;;;;;;;;;;4325188;33;20297;-52
2021/04/20 07:51:16;;;;;;;333.23;176.00;;;;;;;;;;4325650;33;20341;-53
2021/04/20 07:53:51;;;;;;;55.30;35.23;;;;;;;;;;4326550;33;20273;-53
2021/04/20 07:56:24;;;;;;;38.40;27.47;;;;;;;;;;4325555;33;20686;-53
2021/04/20 07:58:54;;;;;;;51.40;37.67;;;;;;;;;;4325056;33;20292;-53
2021/04/20 08:01:32;;;;;;;32.47;18.93;;;;;;;;;;4325889;33;20557;-53
2021/04/20 08:04:10;;;;;;;27.47;18.10;;;;;;;;;;4325602;33;20365;-53
2021/04/20 08:06:38;;;;;;;16.03;13.33;;;;;;;;;;4325462;33;20257;-53
2021/04/20 08:09:12;;;;;;;20.23;15.17;;;;;;;;;;4325444;33;20249;-53
2021/04/20 08:11:45;;;;;;;21.00;16.17;;;;;;;;;;4325844;33;20595;-52
2021/04/20 08:14:33;;;;;;;24.20;16.47;;;;;;;;;;4326660;33;20665;-53
2021/04/20 08:17:11;;;;;;;22.33;15.67;;;;;;;;;;4326401;33;20320;-53
2021/04/20 08:19:44;;;;;;;21.03;17.17;;;;;;;;;;4327171;33;20207;-53
2021/04/20 08:22:15;;;;;;;22.43;17.23;;;;;;;;;;4327970;33;20258;-53
2021/04/20 08:25:02;;;;;;;21.87;16.13;;;;;;;;;;4327053;33;20267;-53
2021/04/20 08:27:33;;;;;;;18.90;13.23;;;;;;;;;;4327967;33;20285;-53
2021/04/20 08:30:09;;;;;;;14.63;12.27;;;;;;;;;;4328081;33;20322;-53
2021/04/20 08:32:37;;;;;;;15.73;14.10;;;;;;;;;;4323636;33;20243;-53
2021/04/20 08:35:13;;;;;;;21.50;17.30;;;;;;;;;;4326973;33;20515;-53
2021/04/20 08:38:02;;;;;;;23.03;17.23;;;;;;;;;;4327895;33;20647;-53
2021/04/20 08:40:49;;;;;;;26.50;18.57;;;;;;;;;;4329771;33;20504;-53
2021/04/20 08:43:27;;;;;;;20.73;17.33;;;;;;;;;;4325552;33;20249;-53
2021/04/20 08:46:16;;;;;;;20.67;17.50;;;;;;;;;;4315565;33;20212;-53
2021/04/20 08:49:05;;;;;;;22.07;16.77;;;;;;;;;;4319997;33;20215;-63
2021/04/20 08:52:05;;;;;;;19.63;16.10;;;;;;;;;;4329240;33;20214;-53
2021/04/20 08:55:00;;;;;;;19.77;15.80;;;;;;;;;;4328527;33;20263;-63
2021/04/20 08:58:16;;;;;;;15.20;13.60;;;;;;;;;;4329835;33;20266;-62
2021/04/20 09:01:08;;;;;;;19.47;14.47;;;;;;;;;;4269555;33;20288;-63
2021/04/20 09:03:36;;;;;;;18.73;15.67;;;;;;;;;;4257363;33;20700;-63
2021/04/20 09:06:05;;;;;;;19.23;16.63;;;;;;;;;;4307879;33;20267;-61
2021/04/20 09:08:35;;;;;;;30.67;21.93;;;;;;;;;;4315721;33;20294;-63
2021/04/20 09:11:32;;;;;;;20.63;15.37;;;;;;;;;;4329159;33;20218;-63
2021/04/20 09:14:07;;;;;;;19.17;15.30;;;;;;;;;;4319294;33;20318;-61
2021/04/20 09:16:47;;;;;;;19.60;15.53;;;;;;;;;;4329664;33;20202;-63
2021/04/20 09:19:19;;;;;;;21.50;14.33;;;;;;;;;;4329380;33;20388;-64
2021/04/20 09:21:57;;;;;;;16.30;14.27;;;;;;;;;;4328017;33;20301;-66
2021/04/20 09:24:29;;;;;;;43.30;32.03;;;;;;;;;;4329602;33;20203;-64
2021/04/20 09:27:07;;;;;;;21.60;16.87;;;;;;;;;;4330003;33;20219;-64
2021/04/20 09:29:36;;;;;;;17.63;14.30;;;;;;;;;;4330633;33;20265;-63
2021/04/20 09:32:06;;;;;;;18.57;13.40;;;;;;;;;;4330354;33;20260;-53
2021/04/20 09:34:35;;;;;;;22.13;15.07;;;;;;;;;;4328803;33;20537;-53
2021/04/20 09:37:03;;;;;;;26.60;16.93;;;;;;;;;;4329958;33;20223;-54
2021/04/20 09:39:34;;;;;;;18.47;15.60;;;;;;;;;;4330153;33;20572;-53
2021/04/20 09:42:02;;;;;;;16.87;13.70;;;;;;;;;;4330152;33;20215;-53
2021/04/20 09:44:46;;;;;;;14.60;12.47;;;;;;;;;;4328419;33;20392;-53
2021/04/20 09:47:17;;;;;;;75.37;44.07;;;;;;;;;;4329196;33;20235;-53
2021/04/20 09:50:04;;;;;;;22.70;16.13;;;;;;;;;;4329338;33;20253;-53
2021/04/20 09:52:45;;;;;;;34.53;20.90;;;;;;;;;;4329735;33;20657;-53
2021/04/20 09:55:17;;;;;;;47.30;27.07;;;;;;;;;;4329597;33;20250;-54
2021/04/20 09:57:48;;;;;;;184.87;90.40;;;;;;;;;;4329223;33;20242;-53
2021/04/20 10:00:15;;;;;;;380.63;175.33;;;;;;;;;;4329579;33;20215;-54
2021/04/20 10:03:04;;;;;;;157.10;78.07;;;;;;;;;;4327952;33;20304;-52
2021/04/20 10:06:23;;;;;;;38.37;23.53;;;;;;;;;;4329325;33;20691;-53
2021/04/20 10:09:26;;;;;;;35.97;22.70;;;;;;;;;;4310203;33;20235;-53
2021/04/20 10:12:20;;;;;;;54.27;26.67;;;;;;;;;;4288627;33;20279;-52
2021/04/20 10:15:05;;;;;;;140.50;50.50;;;;;;;;;;4328892;33;20234;-52
2021/04/20 10:17:54;;;;;;;19.70;16.00;;;;;;;;;;4329620;33;20222;-53
2021/04/20 10:20:43;;;;;;;20.80;16.07;;;;;;;;;;4329315;33;20191;-53
2021/04/20 10:23:41;;;;;;;29.13;19.53;;;;;;;;;;4313229;33;20224;-52
2021/04/20 10:26:42;;;;;;;24.53;21.00;;;;;;;;;;4330130;33;20207;-53
2021/04/20 10:29:17;;;;;;;29.37;19.93;;;;;;;;;;4304406;33;20359;-53
2021/04/20 10:31:47;;;;;;;23.80;19.00;;;;;;;;;;4329276;33;20227;-53
2021/04/20 10:34:17;;;;;;;18.03;15.40;;;;;;;;;;4328668;33;20216;-52
2021/04/20 10:36:52;;;;;;;17.73;15.13;;;;;;;;;;4329052;33;20230;-52
2021/04/20 10:39:21;;;;;;;15.63;14.00;;;;;;;;;;4329055;33;20643;-53
2021/04/20 10:41:48;;;;;;;19.10;15.23;;;;;;;;;;4329072;33;20234;-53
2021/04/20 10:44:15;;;;;;;16.97;15.13;;;;;;;;;;4323834;33;20215;-52
2021/04/20 10:46:44;;;;;;;16.83;15.03;;;;;;;;;;4326758;33;20250;-53
2021/04/20 10:49:15;;;;;;;20.33;16.33;;;;;;;;;;4328517;33;20215;-53
2021/04/20 10:51:41;;;;;;;14.63;13.07;;;;;;;;;;4328225;33;20219;-64
2021/04/20 10:54:10;;;;;;;14.33;12.60;;;;;;;;;;4328649;33;20279;-65
2021/04/20 10:56:36;;;;;;;17.67;15.07;;;;;;;;;;4313097;33;20566;-65
2021/04/20 10:59:08;;;;;;;15.50;12.63;;;;;;;;;;4328237;33;20259;-65
2021/04/20 11:01:34;;;;;;;16.53;13.47;;;;;;;;;;4328007;33;20243;-64
2021/04/20 11:04:04;;;;;;;14.23;12.73;;;;;;;;;;4314512;33;20334;-63
2021/04/20 11:06:48;;;;;;;14.70;13.17;;;;;;;;;;4327884;33;20669;-64
2021/04/20 11:09:14;;;;;;;14.57;13.07;;;;;;;;;;4328013;33;20223;-65
2021/04/20 11:11:39;;;;;;;13.40;11.77;;;;;;;;;;4326974;33;20530;-53
2021/04/20 11:14:05;;;;;;;14.53;13.03;;;;;;;;;;4328229;33;20242;-53
2021/04/20 11:16:35;;;;;;;25.83;19.60;;;;;;;;;;4328181;33;20431;-64
2021/04/20 11:19:06;;;;;;;16.93;12.60;;;;;;;;;;4328412;33;20314;-64
2021/04/20 11:21:36;;;;;;;17.30;14.40;;;;;;;;;;4328727;33;20219;-54
2021/04/20 11:24:13;;;;;;;15.03;12.33;;;;;;;;;;4328609;33;20219;-53
2021/04/20 11:26:43;;;;;;;17.60;12.50;;;;;;;;;;4328975;33;20206;-54
2021/04/20 11:29:13;;;;;;;14.60;12.30;;;;;;;;;;4328929;33;20207;-65
2021/04/20 11:31:48;;;;;;;20.87;18.63;;;;;;;;;;4329002;33;20278;-65
2021/04/20 11:34:24;;;;;;;16.53;13.37;;;;;;;;;;4315006;33;20227;-65
2021/04/20 11:37:20;;;;;;;14.70;10.93;;;;;;;;;;4327473;33;20615;-65
2021/04/20 11:40:28;;;;;;;13.77;12.37;;;;;;;;;;4327542;33;20227;-64
2021/04/20 11:42:55;;;;;;;14.90;13.30;;;;;;;;;;4306263;33;20308;-65
2021/04/20 11:45:25;;;;;;;24.47;15.43;;;;;;;;;;4316433;33;20604;-64
2021/04/20 11:48:00;;;;;;;14.67;12.10;;;;;;;;;;4313846;33;20649;-64
2021/04/20 11:50:31;;;;;;;15.33;13.37;;;;;;;;;;4320394;33;20227;-64
2021/04/20 11:53:08;;;;;;;12.67;11.37;;;;;;;;;;4328476;33;20328;-65
2021/04/20 11:55:43;;;;;;;13.23;11.67;;;;;;;;;;4308864;33;20259;-65
2021/04/20 11:58:13;;;;;;;11.63;10.43;;;;;;;;;;4324925;33;20250;-65
2021/04/20 12:00:42;;;;;;;80.23;48.37;;;;;;;;;;4320826;33;20299;-64
2021/04/20 12:03:19;;;;;;;10.10;9.07;;;;;;;;;;4326160;33;20678;-64
2021/04/20 12:05:47;;;;;;;9.47;8.50;;;;;;;;;;4322512;33;20576;-63
2021/04/20 12:08:36;;;;;;;9.33;8.43;;;;;;;;;;4314326;33;20649;-64
2021/04/20 12:11:08;;;;;;;43.10;29.67;;;;;;;;;;4328105;33;20195;-64
2021/04/20 12:13:37;;;;;;;12.40;11.20;;;;;;;;;;4328983;33;20262;-64
2021/04/20 12:16:10;;;;;;;9.90;8.43;;;;;;;;;;4331168;33;20706;-64
2021/04/20 12:18:37;;;;;;;14.13;12.67;;;;;;;;;;4330666;33;20333;-65
2021/04/20 12:21:06;;;;;;;18.93;13.23;;;;;;;;;;4328552;33;20246;-65
2021/04/20 12:23:34;;;;;;;16.47;14.53;;;;;;;;;;4326208;33;20614;-53
2021/04/20 12:26:01;;;;;;;14.03;12.63;;;;;;;;;;4320671;33;20236;-52
2021/04/20 12:28:29;;;;;;;14.67;13.17;;;;;;;;;;4329276;33;20300;-52
2021/04/20 12:30:55;;;;;;;13.13;11.93;;;;;;;;;;4316850;33;20756;-52
2021/04/20 12:33:29;;;;;;;16.23;14.50;;;;;;;;;;4327394;33;20255;-53
2021/04/20 12:35:55;;;;;;;13.80;12.50;;;;;;;;;;4330097;33;20306;-53
2021/04/20 12:38:23;;;;;;;15.93;14.23;;;;;;;;;;4330107;33;20272;-53
2021/04/20 12:40:59;;;;;;;15.67;14.17;;;;;;;;;;4330165;33;20286;-52
2021/04/20 12:43:26;;;;;;;12.93;11.73;;;;;;;;;;4330463;33;20227;-52
2021/04/20 12:46:07;;;;;;;16.80;12.40;;;;;;;;;;4322164;33;20348;-53
2021/04/20 12:48:33;;;;;;;11.23;10.13;;;;;;;;;;4330242;33;20230;-52
2021/04/20 12:51:01;;;;;;;13.00;11.70;;;;;;;;;;4330871;33;20314;-53
2021/04/20 12:53:28;;;;;;;11.63;10.43;;;;;;;;;;4330047;33;20215;-54
2021/04/20 12:55:54;;;;;;;11.73;10.53;;;;;;;;;;4330444;33;20640;-53
2021/04/20 12:58:25;;;;;;;12.80;11.50;;;;;;;;;;4329771;33;20309;-54
2021/04/20 13:01:03;;;;;;;14.03;12.53;;;;;;;;;;4329421;33;20325;-54
2021/04/20 13:03:30;;;;;;;12.07;10.77;;;;;;;;;;4330718;33;20211;-65
2021/04/20 13:05:57;;;;;;;17.07;15.27;;;;;;;;;;4318664;33;20489;-64
2021/04/20 13:08:27;;;;;;;14.53;13.03;;;;;;;;;;4314811;33;20700;-65
2021/04/20 13:10:57;;;;;;;17.70;15.13;;;;;;;;;;4329899;33;20504;-53
2021/04/20 13:13:30;;;;;;;22.63;19.07;;;;;;;;;;4330455;33;20270;-54
2021/04/20 13:15:59;;;;;;;14.00;11.80;;;;;;;;;;4330378;33;20208;-53
2021/04/20 13:18:27;;;;;;;16.13;14.13;;;;;;;;;;4329625;33;20301;-53
2021/04/20 13:20:58;;;;;;;11.50;10.20;;;;;;;;;;4329808;33;20332;-54
2021/04/20 13:23:28;;;;;;;21.30;15.53;;;;;;;;;;4329974;33;20243;-54
2021/04/20 13:26:00;;;;;;;12.27;10.97;;;;;;;;;;4322440;33;20289;-66
2021/04/20 13:28:31;;;;;;;14.77;10.47;;;;;;;;;;4328912;33;20360;-66
2021/04/20 13:30:58;;;;;;;14.63;13.00;;;;;;;;;;4330147;33;20242;-66
2021/04/20 13:33:27;;;;;;;16.97;11.60;;;;;;;;;;4330147;33;20223;-64
2021/04/20 13:35:55;;;;;;;33.97;25.47;;;;;;;;;;4330190;33;20211;-65
2021/04/20 13:38:23;;;;;;;12.13;10.93;;;;;;;;;;4329103;33;20771;-64
2021/04/20 13:40:50;;;;;;;8.63;7.77;;;;;;;;;;4328985;33;20281;-54
2021/04/20 13:43:17;;;;;;;10.03;9.03;;;;;;;;;;4330078;33;20338;-53
2021/04/20 13:45:47;;;;;;;10.37;8.20;;;;;;;;;;4329347;33;20681;-53
2021/04/20 13:48:23;;;;;;;9.27;8.32;;;;;;;;;;4329620;33;20326;-66
2021/04/20 13:50:50;;;;;;;12.90;11.60;;;;;;;;;;4329982;33;20216;-65
2021/04/20 13:53:33;;;;;;;15.27;12.93;;;;;;;;;;4330212;33;20223;-66
2021/04/20 13:56:04;;;;;;;13.70;10.33;;;;;;;;;;4330177;33;20192;-65
2021/04/20 13:58:36;;;;;;;12.67;9.93;;;;;;;;;;4329868;33;20386;-66
2021/04/20 14:01:06;;;;;;;14.67;10.20;;;;;;;;;;4329233;33;20246;-67
2021/04/20 14:03:39;;;;;;;9.73;8.80;;;;;;;;;;4329632;33;20265;-67
2021/04/20 14:06:10;;;;;;;10.53;8.43;;;;;;;;;;4329531;33;20212;-67
2021/04/20 14:08:38;;;;;;;11.53;9.43;;;;;;;;;;4327259;33;20629;-67
2021/04/20 14:11:06;;;;;;;10.87;9.77;;;;;;;;;;4324019;33;20235;-67
2021/04/20 14:13:35;;;;;;;12.00;9.07;;;;;;;;;;4329485;33;20624;-67
2021/04/20 14:16:05;;;;;;;11.97;9.40;;;;;;;;;;4329455;33;20199;-67
2021/04/20 14:18:31;;;;;;;10.00;7.40;;;;;;;;;;4329321;33;20299;-67
2021/04/20 14:21:11;;;;;;;7.50;6.80;;;;;;;;;;4329936;33;20320;-66
2021/04/20 14:23:39;;;;;;;7.35;6.57;;;;;;;;;;4328845;33;20242;-67
2021/04/20 14:26:12;;;;;;;8.75;7.93;;;;;;;;;;4329500;33;20215;-67
2021/04/20 14:28:39;;;;;;;9.77;8.63;;;;;;;;;;4329668;33;20388;-66
2021/04/20 14:31:05;;;;;;;8.43;7.53;;;;;;;;;;4329446;33;20241;-53
2021/04/20 14:33:35;;;;;;;10.90;8.90;;;;;;;;;;4328950;33;20223;-67
2021/04/20 14:36:01;;;;;;;7.70;6.90;;;;;;;;;;4328338;33;20250;-67
2021/04/20 14:38:34;;;;;;;9.30;8.27;;;;;;;;;;4329267;33;20227;-67
2021/04/20 14:41:02;;;;;;;12.43;9.07;;;;;;;;;;4329514;33;20557;-66
2021/04/20 14:43:28;;;;;;;14.37;9.63;;;;;;;;;;4328703;33;20747;-66
2021/04/20 14:45:54;;;;;;;16.77;11.00;;;;;;;;;;4315417;33;20305;-67
2021/04/20 14:48:24;;;;;;;18.97;11.37;;;;;;;;;;4315419;33;20310;-67